sensor_id;sensor_type;location;lat;lon;timestamp;pressure;altitude;pressure_sealevel;temperature;humidity
38400;BME280;24180;42.676;23.320;2023-04-30T00:00:03;94482.53;;;10.41;100.00
38400;BME280;24180;42.676;23.320;2023-04-30T00:02:32;94487.19;;;10.37;100.00
38400;BME280;24180;42.676;23.320;2023-04-30T00:04:58;94463.44;;;10.24;100.00
38400;BME280;24180;42.676;23.320;2023-04-30T00:07:23;94477.44;;;10.31;100.00
38400;BME280;24180;42.676;23.320;2023-04-30T00:09:48;94460.16;;;10.04;100.00
38400;BME280;24180;42.676;23.320;2023-04-30T00:12:15;94479.28;;;10.21;100.00
38400;BME280;24180;42.676;23.320;2023-04-30T00:14:40;94471.97;;;10.16;100.00
38400;BME280;24180;42.676;23.320;2023-04-30T00:17:06;94443.25;;;9.92;100.00
38400;BME280;24180;42.676;23.320;2023-04-30T00:19:31;94469.19;;;10.00;100.00
38400;BME280;24180;42.676;23.320;2023-04-30T00:21:57;94447.75;;;9.90;100.00
38400;BME280;24180;42.676;23.320;2023-04-30T00:24:22;94445.19;;;9.90;100.00
38400;BME280;24180;42.676;23.320;2023-04-30T00:26:47;94447.59;;;9.92;100.00
38400;BME280;24180;42.676;23.320;2023-04-30T00:29:13;94471.03;;;10.08;100.00
38400;BME280;24180;42.676;23.320;2023-04-30T00:31:38;94474.59;;;10.07;100.00
38400;BME280;24180;42.676;23.320;2023-04-30T00:34:04;94478.72;;;10.00;100.00
38400;BME280;24180;42.676;23.320;2023-04-30T00:36:29;94483.06;;;9.99;100.00
38400;BME280;24180;42.676;23.320;2023-04-30T00:38:56;94445.16;;;9.72;100.00
38400;BME280;24180;42.676;23.320;2023-04-30T00:41:21;94458.59;;;9.76;100.00
38400;BME280;24180;42.676;23.320;2023-04-30T00:43:47;94447.84;;;9.71;100.00
38400;BME280;24180;42.676;23.320;2023-04-30T00:46:12;94472.56;;;9.83;100.00
38400;BME280;24180;42.676;23.320;2023-04-30T00:48:38;94448.47;;;9.65;100.00
38400;BME280;24180;42.676;23.320;2023-04-30T00:51:04;94434.50;;;9.58;100.00
38400;BME280;24180;42.676;23.320;2023-04-30T00:53:30;94376.91;;;9.20;100.00
38400;BME280;24180;42.676;23.320;2023-04-30T00:55:56;94461.09;;;9.68;100.00
38400;BME280;24180;42.676;23.320;2023-04-30T00:58:22;94465.00;;;9.72;100.00
38400;BME280;24180;42.676;23.320;2023-04-30T01:00:47;94469.34;;;9.71;100.00
38400;BME280;24180;42.676;23.320;2023-04-30T01:03:14;94441.47;;;9.48;100.00
38400;BME280;24180;42.676;23.320;2023-04-30T01:05:40;94462.16;;;9.48;100.00
38400;BME280;24180;42.676;23.320;2023-04-30T01:08:06;94466.59;;;9.55;100.00
38400;BME280;24180;42.676;23.320;2023-04-30T01:10:40;94458.47;;;9.50;100.00
38400;BME280;24180;42.676;23.320;2023-04-30T01:15:58;94442.28;;;9.21;100.00
38400;BME280;24180;42.676;23.320;2023-04-30T01:18:27;94454.88;;;9.33;100.00
38400;BME280;24180;42.676;23.320;2023-04-30T01:21:00;94462.25;;;9.28;100.00
38400;BME280;24180;42.676;23.320;2023-04-30T01:26:41;94468.66;;;9.24;100.00
38400;BME280;24180;42.676;23.320;2023-04-30T01:29:11;94453.34;;;9.13;100.00
38400;BME280;24180;42.676;23.320;2023-04-30T01:31:42;94452.41;;;9.14;100.00
38400;BME280;24180;42.676;23.320;2023-04-30T01:34:08;94458.22;;;9.16;100.00
38400;BME280;24180;42.676;23.320;2023-04-30T01:45:32;94457.00;;;9.11;100.00
38400;BME280;24180;42.676;23.320;2023-04-30T01:48:21;94436.00;;;8.96;100.00
38400;BME280;24180;42.676;23.320;2023-04-30T01:50:57;94455.81;;;9.05;100.00
38400;BME280;24180;42.676;23.320;2023-04-30T01:53:39;94417.53;;;8.91;100.00
38400;BME280;24180;42.676;23.320;2023-04-30T01:56:10;94454.97;;;9.14;100.00
38400;BME280;24180;42.676;23.320;2023-04-30T01:58:37;94456.56;;;9.25;100.00
38400;BME280;24180;42.676;23.320;2023-04-30T02:01:04;94431.03;;;9.12;100.00
38400;BME280;24180;42.676;23.320;2023-04-30T02:03:31;94437.44;;;9.08;100.00
38400;BME280;24180;42.676;23.320;2023-04-30T02:05:57;94440.56;;;9.12;100.00
38400;BME280;24180;42.676;23.320;2023-04-30T02:08:23;94428.84;;;9.17;100.00
38400;BME280;24180;42.676;23.320;2023-04-30T02:10:48;94462.94;;;9.30;100.00
38400;BME280;24180;42.676;23.320;2023-04-30T02:13:14;94465.22;;;9.33;100.00
38400;BME280;24180;42.676;23.320;2023-04-30T02:15:39;94422.47;;;9.12;100.00
38400;BME280;24180;42.676;23.320;2023-04-30T02:18:05;94451.09;;;9.28;100.00
38400;BME280;24180;42.676;23.320;2023-04-30T02:20:30;94418.72;;;9.06;100.00
38400;BME280;24180;42.676;23.320;2023-04-30T02:22:56;94462.16;;;9.20;100.00
38400;BME280;24180;42.676;23.320;2023-04-30T02:25:21;94424.81;;;9.05;100.00
38400;BME280;24180;42.676;23.320;2023-04-30T02:27:46;94443.81;;;9.14;100.00
38400;BME280;24180;42.676;23.320;2023-04-30T02:30:14;94423.88;;;9.06;100.00
38400;BME280;24180;42.676;23.320;2023-04-30T02:32:40;94443.50;;;9.26;100.00
38400;BME280;24180;42.676;23.320;2023-04-30T02:35:05;94451.63;;;9.31;100.00
38400;BME280;24180;42.676;23.320;2023-04-30T02:37:31;94458.66;;;9.39;100.00
38400;BME280;24180;42.676;23.320;2023-04-30T02:39:56;94427.72;;;9.29;100.00
38400;BME280;24180;42.676;23.320;2023-04-30T02:42:21;94432.44;;;9.34;100.00
38400;BME280;24180;42.676;23.320;2023-04-30T02:44:47;94446.38;;;9.51;100.00
38400;BME280;24180;42.676;23.320;2023-04-30T02:47:12;94426.56;;;9.42;100.00
38400;BME280;24180;42.676;23.320;2023-04-30T02:49:38;94459.09;;;9.62;100.00
38400;BME280;24180;42.676;23.320;2023-04-30T02:52:04;94437.13;;;9.48;100.00
38400;BME280;24180;42.676;23.320;2023-04-30T02:54:30;94450.22;;;9.64;100.00
38400;BME280;24180;42.676;23.320;2023-04-30T02:56:55;94448.03;;;9.69;100.00
38400;BME280;24180;42.676;23.320;2023-04-30T02:59:20;94437.31;;;9.64;100.00
38400;BME280;24180;42.676;23.320;2023-04-30T03:01:46;94444.91;;;9.66;100.00
38400;BME280;24180;42.676;23.320;2023-04-30T03:04:11;94439.75;;;9.66;100.00
38400;BME280;24180;42.676;23.320;2023-04-30T03:06:37;94425.63;;;9.60;100.00
38400;BME280;24180;42.676;23.320;2023-04-30T03:09:02;94449.50;;;9.72;100.00
38400;BME280;24180;42.676;23.320;2023-04-30T03:11:27;94470.66;;;9.85;100.00
38400;BME280;24180;42.676;23.320;2023-04-30T03:13:53;94477.97;;;9.90;100.00
38400;BME280;24180;42.676;23.320;2023-04-30T03:16:19;94452.69;;;9.66;100.00
38400;BME280;24180;42.676;23.320;2023-04-30T03:18:45;94485.06;;;9.87;100.00
38400;BME280;24180;42.676;23.320;2023-04-30T03:21:11;94462.50;;;9.80;100.00
38400;BME280;24180;42.676;23.320;2023-04-30T03:23:36;94452.03;;;9.81;100.00
38400;BME280;24180;42.676;23.320;2023-04-30T03:26:02;94483.38;;;9.96;100.00
38400;BME280;24180;42.676;23.320;2023-04-30T03:28:27;94453.38;;;9.85;100.00
38400;BME280;24180;42.676;23.320;2023-04-30T03:30:53;94468.16;;;9.93;100.00
38400;BME280;24180;42.676;23.320;2023-04-30T03:33:18;94476.34;;;9.88;100.00
38400;BME280;24180;42.676;23.320;2023-04-30T03:35:44;94477.75;;;10.01;100.00
38400;BME280;24180;42.676;23.320;2023-04-30T03:38:10;94457.13;;;9.91;100.00
38400;BME280;24180;42.676;23.320;2023-04-30T03:40:35;94468.88;;;10.03;100.00
38400;BME280;24180;42.676;23.320;2023-04-30T03:43:00;94488.69;;;10.12;100.00
38400;BME280;24180;42.676;23.320;2023-04-30T03:45:26;94476.81;;;10.02;100.00
38400;BME280;24180;42.676;23.320;2023-04-30T03:47:51;94498.78;;;10.15;100.00
38400;BME280;24180;42.676;23.320;2023-04-30T03:50:18;94494.69;;;10.13;100.00
38400;BME280;24180;42.676;23.320;2023-04-30T03:52:44;94501.63;;;10.22;100.00
38400;BME280;24180;42.676;23.320;2023-04-30T03:55:10;94507.31;;;10.25;100.00
38400;BME280;24180;42.676;23.320;2023-04-30T03:57:35;94510.72;;;10.26;100.00
38400;BME280;24180;42.676;23.320;2023-04-30T04:00:02;94487.47;;;10.16;100.00
38400;BME280;24180;42.676;23.320;2023-04-30T04:02:32;94506.25;;;10.36;100.00
38400;BME280;24180;42.676;23.320;2023-04-30T04:04:57;94515.06;;;10.43;100.00
38400;BME280;24180;42.676;23.320;2023-04-30T04:07:23;94499.63;;;10.33;100.00
38400;BME280;24180;42.676;23.320;2023-04-30T04:09:48;94525.13;;;10.46;100.00
38400;BME280;24180;42.676;23.320;2023-04-30T04:12:14;94494.88;;;10.29;100.00
38400;BME280;24180;42.676;23.320;2023-04-30T04:14:39;94508.72;;;10.38;100.00
38400;BME280;24180;42.676;23.320;2023-04-30T04:17:05;94489.91;;;10.36;100.00
38400;BME280;24180;42.676;23.320;2023-04-30T04:19:30;94519.78;;;10.48;100.00
38400;BME280;24180;42.676;23.320;2023-04-30T04:21:56;94489.63;;;10.39;100.00
38400;BME280;24180;42.676;23.320;2023-04-30T04:24:24;94497.09;;;10.42;100.00
38400;BME280;24180;42.676;23.320;2023-04-30T04:26:49;94525.56;;;10.59;100.00
38400;BME280;24180;42.676;23.320;2023-04-30T04:29:15;94521.88;;;10.62;100.00
38400;BME280;24180;42.676;23.320;2023-04-30T04:31:40;94510.50;;;10.55;100.00
38400;BME280;24180;42.676;23.320;2023-04-30T04:34:07;94503.38;;;10.57;100.00
38400;BME280;24180;42.676;23.320;2023-04-30T04:36:32;94515.44;;;10.66;100.00
38400;BME280;24180;42.676;23.320;2023-04-30T04:38:58;94513.03;;;10.72;100.00
38400;BME280;24180;42.676;23.320;2023-04-30T04:41:31;94546.38;;;10.93;100.00
38400;BME280;24180;42.676;23.320;2023-04-30T04:43:57;94546.25;;;10.95;100.00
38400;BME280;24180;42.676;23.320;2023-04-30T04:46:24;94544.47;;;10.95;100.00
38400;BME280;24180;42.676;23.320;2023-04-30T04:48:50;94546.38;;;10.93;100.00
38400;BME280;24180;42.676;23.320;2023-04-30T04:51:16;94519.16;;;10.89;100.00
38400;BME280;24180;42.676;23.320;2023-04-30T04:53:41;94557.75;;;11.18;100.00
38400;BME280;24180;42.676;23.320;2023-04-30T04:56:07;94554.69;;;11.22;100.00
38400;BME280;24180;42.676;23.320;2023-04-30T04:58:33;94552.31;;;11.29;100.00
38400;BME280;24180;42.676;23.320;2023-04-30T05:00:58;94555.75;;;11.12;100.00
38400;BME280;24180;42.676;23.320;2023-04-30T05:03:25;94534.44;;;11.00;100.00
38400;BME280;24180;42.676;23.320;2023-04-30T05:05:51;94559.84;;;11.14;100.00
38400;BME280;24180;42.676;23.320;2023-04-30T05:08:17;94556.00;;;11.01;100.00
38400;BME280;24180;42.676;23.320;2023-04-30T05:10:42;94535.88;;;10.95;100.00
38400;BME280;24180;42.676;23.320;2023-04-30T05:13:08;94538.53;;;11.03;100.00
38400;BME280;24180;42.676;23.320;2023-04-30T05:15:33;94492.94;;;10.66;100.00
38400;BME280;24180;42.676;23.320;2023-04-30T05:17:58;94536.03;;;10.93;100.00
38400;BME280;24180;42.676;23.320;2023-04-30T05:20:24;94543.34;;;11.23;100.00
38400;BME280;24180;42.676;23.320;2023-04-30T05:22:49;94559.69;;;11.42;100.00
38400;BME280;24180;42.676;23.320;2023-04-30T05:25:15;94548.94;;;11.37;100.00
38400;BME280;24180;42.676;23.320;2023-04-30T05:27:40;94554.84;;;11.47;100.00
38400;BME280;24180;42.676;23.320;2023-04-30T05:30:06;94556.03;;;11.60;100.00
38400;BME280;24180;42.676;23.320;2023-04-30T05:32:33;94555.41;;;11.58;100.00
38400;BME280;24180;42.676;23.320;2023-04-30T05:34:59;94555.06;;;11.79;100.00
38400;BME280;24180;42.676;23.320;2023-04-30T05:37:25;94527.06;;;11.65;100.00
38400;BME280;24180;42.676;23.320;2023-04-30T05:39:50;94524.16;;;11.68;100.00
38400;BME280;24180;42.676;23.320;2023-04-30T05:42:18;94559.00;;;11.91;100.00
38400;BME280;24180;42.676;23.320;2023-04-30T05:44:43;94529.47;;;11.92;100.00
38400;BME280;24180;42.676;23.320;2023-04-30T05:47:09;94542.84;;;12.13;100.00
38400;BME280;24180;42.676;23.320;2023-04-30T05:49:34;94546.28;;;12.22;100.00
38400;BME280;24180;42.676;23.320;2023-04-30T05:51:59;94537.38;;;12.33;100.00
38400;BME280;24180;42.676;23.320;2023-04-30T05:54:27;94554.28;;;12.53;100.00
38400;BME280;24180;42.676;23.320;2023-04-30T05:56:53;94530.28;;;12.51;100.00
38400;BME280;24180;42.676;23.320;2023-04-30T05:59:18;94552.50;;;12.61;100.00
38400;BME280;24180;42.676;23.320;2023-04-30T06:01:44;94546.34;;;12.54;100.00
38400;BME280;24180;42.676;23.320;2023-04-30T06:04:09;94535.13;;;12.54;100.00
38400;BME280;24180;42.676;23.320;2023-04-30T06:06:35;94532.69;;;12.60;100.00
38400;BME280;24180;42.676;23.320;2023-04-30T06:09:01;94543.28;;;12.75;100.00
38400;BME280;24180;42.676;23.320;2023-04-30T06:11:26;94561.63;;;12.82;100.00
38400;BME280;24180;42.676;23.320;2023-04-30T06:13:52;94536.59;;;12.73;100.00
38400;BME280;24180;42.676;23.320;2023-04-30T06:16:17;94547.34;;;12.94;100.00
38400;BME280;24180;42.676;23.320;2023-04-30T06:18:43;94574.16;;;13.10;100.00
38400;BME280;24180;42.676;23.320;2023-04-30T06:21:08;94571.91;;;13.16;100.00
38400;BME280;24180;42.676;23.320;2023-04-30T06:23:34;94559.66;;;13.40;100.00
38400;BME280;24180;42.676;23.320;2023-04-30T06:25:59;94546.81;;;13.55;100.00
38400;BME280;24180;42.676;23.320;2023-04-30T06:28:25;94552.28;;;13.68;100.00
38400;BME280;24180;42.676;23.320;2023-04-30T06:30:50;94556.34;;;13.79;100.00
38400;BME280;24180;42.676;23.320;2023-04-30T06:33:17;94562.81;;;13.91;100.00
38400;BME280;24180;42.676;23.320;2023-04-30T06:35:43;94568.84;;;13.83;100.00
38400;BME280;24180;42.676;23.320;2023-04-30T06:38:08;94578.97;;;13.70;100.00
38400;BME280;24180;42.676;23.320;2023-04-30T06:40:34;94579.03;;;13.30;100.00
38400;BME280;24180;42.676;23.320;2023-04-30T06:42:59;94572.84;;;13.06;100.00
38400;BME280;24180;42.676;23.320;2023-04-30T06:45:25;94530.59;;;12.72;100.00
38400;BME280;24180;42.676;23.320;2023-04-30T06:47:50;94577.09;;;13.16;100.00
38400;BME280;24180;42.676;23.320;2023-04-30T06:50:17;94578.22;;;13.13;100.00
38400;BME280;24180;42.676;23.320;2023-04-30T06:52:42;94564.41;;;13.21;100.00
38400;BME280;24180;42.676;23.320;2023-04-30T06:55:08;94546.50;;;13.50;100.00
38400;BME280;24180;42.676;23.320;2023-04-30T06:57:33;94547.69;;;13.86;100.00
38400;BME280;24180;42.676;23.320;2023-04-30T07:00:02;94565.84;;;14.02;100.00
38400;BME280;24180;42.676;23.320;2023-04-30T07:02:28;94558.84;;;14.42;100.00
38400;BME280;24180;42.676;23.320;2023-04-30T07:04:53;94573.31;;;14.98;100.00
38400;BME280;24180;42.676;23.320;2023-04-30T07:07:19;94555.16;;;15.05;100.00
38400;BME280;24180;42.676;23.320;2023-04-30T07:09:45;94578.53;;;14.98;100.00
38400;BME280;24180;42.676;23.320;2023-04-30T07:12:10;94555.63;;;15.08;100.00
38400;BME280;24180;42.676;23.320;2023-04-30T07:14:37;94586.19;;;15.37;100.00
38400;BME280;24180;42.676;23.320;2023-04-30T07:17:03;94566.03;;;15.31;100.00
38400;BME280;24180;42.676;23.320;2023-04-30T07:19:28;94578.00;;;15.63;100.00
38400;BME280;24180;42.676;23.320;2023-04-30T07:21:54;94556.75;;;15.51;100.00
38400;BME280;24180;42.676;23.320;2023-04-30T07:24:19;94575.63;;;15.53;100.00
38400;BME280;24180;42.676;23.320;2023-04-30T07:26:45;94552.81;;;15.32;100.00
38400;BME280;24180;42.676;23.320;2023-04-30T07:29:10;94557.47;;;15.37;100.00
38400;BME280;24180;42.676;23.320;2023-04-30T07:31:36;94581.84;;;15.52;100.00
38400;BME280;24180;42.676;23.320;2023-04-30T07:34:01;94579.16;;;15.23;100.00
38400;BME280;24180;42.676;23.320;2023-04-30T07:36:27;94557.56;;;15.29;100.00
38400;BME280;24180;42.676;23.320;2023-04-30T07:38:52;94562.78;;;15.52;100.00
38400;BME280;24180;42.676;23.320;2023-04-30T07:41:17;94573.78;;;15.91;100.00
38400;BME280;24180;42.676;23.320;2023-04-30T07:43:43;94586.50;;;16.09;100.00
38400;BME280;24180;42.676;23.320;2023-04-30T07:46:08;94564.03;;;15.85;100.00
38400;BME280;24180;42.676;23.320;2023-04-30T07:48:34;94587.19;;;15.88;100.00
38400;BME280;24180;42.676;23.320;2023-04-30T07:50:59;94567.66;;;15.84;100.00
38400;BME280;24180;42.676;23.320;2023-04-30T07:53:25;94591.50;;;16.25;100.00
38400;BME280;24180;42.676;23.320;2023-04-30T07:55:50;94581.41;;;16.22;100.00
38400;BME280;24180;42.676;23.320;2023-04-30T07:58:16;94560.09;;;16.04;100.00
38400;BME280;24180;42.676;23.320;2023-04-30T08:00:41;94544.66;;;16.23;100.00
38400;BME280;24180;42.676;23.320;2023-04-30T08:03:07;94579.75;;;16.50;100.00
38400;BME280;24180;42.676;23.320;2023-04-30T08:05:33;94563.38;;;16.77;100.00
38400;BME280;24180;42.676;23.320;2023-04-30T08:07:58;94591.13;;;16.57;100.00
38400;BME280;24180;42.676;23.320;2023-04-30T08:10:23;94577.28;;;16.13;100.00
38400;BME280;24180;42.676;23.320;2023-04-30T08:12:50;94581.78;;;16.19;100.00
38400;BME280;24180;42.676;23.320;2023-04-30T08:15:17;94588.47;;;16.07;100.00
38400;BME280;24180;42.676;23.320;2023-04-30T08:17:47;94569.06;;;15.57;100.00
38400;BME280;24180;42.676;23.320;2023-04-30T08:20:13;94584.31;;;15.68;100.00
38400;BME280;24180;42.676;23.320;2023-04-30T08:22:38;94535.91;;;15.28;100.00
38400;BME280;24180;42.676;23.320;2023-04-30T08:25:04;94589.28;;;15.40;100.00
38400;BME280;24180;42.676;23.320;2023-04-30T08:27:30;94573.13;;;15.37;100.00
38400;BME280;24180;42.676;23.320;2023-04-30T08:29:56;94598.09;;;15.91;100.00
38400;BME280;24180;42.676;23.320;2023-04-30T08:32:21;94547.75;;;15.98;100.00
38400;BME280;24180;42.676;23.320;2023-04-30T08:34:47;94594.47;;;16.22;100.00
38400;BME280;24180;42.676;23.320;2023-04-30T08:37:12;94575.38;;;16.21;100.00
38400;BME280;24180;42.676;23.320;2023-04-30T08:39:37;94563.91;;;16.37;100.00
38400;BME280;24180;42.676;23.320;2023-04-30T08:42:07;94561.28;;;16.37;100.00
38400;BME280;24180;42.676;23.320;2023-04-30T08:44:33;94584.25;;;16.71;100.00
38400;BME280;24180;42.676;23.320;2023-04-30T08:47:00;94583.34;;;17.00;99.88
38400;BME280;24180;42.676;23.320;2023-04-30T08:49:26;94587.88;;;16.91;96.75
38400;BME280;24180;42.676;23.320;2023-04-30T08:51:52;94579.03;;;17.13;95.62
38400;BME280;24180;42.676;23.320;2023-04-30T08:54:18;94577.47;;;16.98;96.41
38400;BME280;24180;42.676;23.320;2023-04-30T08:56:44;94546.16;;;16.47;98.08
38400;BME280;24180;42.676;23.320;2023-04-30T08:59:11;94548.44;;;16.71;99.16
38400;BME280;24180;42.676;23.320;2023-04-30T09:01:37;94542.53;;;16.63;98.14
38400;BME280;24180;42.676;23.320;2023-04-30T09:04:02;94556.34;;;16.42;98.75
38400;BME280;24180;42.676;23.320;2023-04-30T09:06:28;94562.34;;;16.72;100.00
38400;BME280;24180;42.676;23.320;2023-04-30T09:08:54;94495.94;;;16.52;97.38
38400;BME280;24180;42.676;23.320;2023-04-30T09:11:29;94562.53;;;16.92;95.53
38400;BME280;24180;42.676;23.320;2023-04-30T09:13:59;94549.19;;;16.87;95.98
38400;BME280;24180;42.676;23.320;2023-04-30T09:16:27;94533.03;;;16.76;95.35
38400;BME280;24180;42.676;23.320;2023-04-30T09:18:54;94520.94;;;16.75;93.34
38400;BME280;24180;42.676;23.320;2023-04-30T09:21:34;94538.91;;;17.06;92.90
38400;BME280;24180;42.676;23.320;2023-04-30T09:24:02;94539.81;;;17.41;91.42
38400;BME280;24180;42.676;23.320;2023-04-30T09:26:34;94516.47;;;17.46;89.39
38400;BME280;24180;42.676;23.320;2023-04-30T09:29:00;94536.56;;;17.60;89.33
38400;BME280;24180;42.676;23.320;2023-04-30T09:31:32;94525.22;;;17.88;88.99
38400;BME280;24180;42.676;23.320;2023-04-30T09:33:57;94504.75;;;18.04;85.70
38400;BME280;24180;42.676;23.320;2023-04-30T09:36:23;94504.91;;;18.37;85.36
38400;BME280;24180;42.676;23.320;2023-04-30T09:38:48;94515.06;;;18.53;79.93
38400;BME280;24180;42.676;23.320;2023-04-30T09:41:27;94514.09;;;18.20;80.70
38400;BME280;24180;42.676;23.320;2023-04-30T09:43:54;94512.97;;;18.42;80.06
38400;BME280;24180;42.676;23.320;2023-04-30T09:46:21;94500.78;;;19.02;76.25
38400;BME280;24180;42.676;23.320;2023-04-30T09:48:55;94488.03;;;18.66;76.53
38400;BME280;24180;42.676;23.320;2023-04-30T09:51:21;94485.66;;;18.91;76.88
38400;BME280;24180;42.676;23.320;2023-04-30T09:53:46;94510.28;;;18.96;73.32
38400;BME280;24180;42.676;23.320;2023-04-30T09:56:14;94511.50;;;19.00;72.36
38400;BME280;24180;42.676;23.320;2023-04-30T09:58:45;94490.72;;;19.12;73.43
38400;BME280;24180;42.676;23.320;2023-04-30T10:01:14;94517.16;;;19.50;71.56
38400;BME280;24180;42.676;23.320;2023-04-30T10:03:42;94481.00;;;19.19;71.61
38400;BME280;24180;42.676;23.320;2023-04-30T10:06:08;94487.47;;;19.62;69.12
38400;BME280;24180;42.676;23.320;2023-04-30T10:08:42;94486.22;;;21.55;60.23
38400;BME280;24180;42.676;23.320;2023-04-30T10:11:09;94454.22;;;24.30;49.11
38400;BME280;24180;42.676;23.320;2023-04-30T10:16:36;94490.41;;;23.43;47.51
38400;BME280;24180;42.676;23.320;2023-04-30T10:19:24;94439.09;;;20.72;55.76
38400;BME280;24180;42.676;23.320;2023-04-30T10:21:51;94475.97;;;20.15;62.73
38400;BME280;24180;42.676;23.320;2023-04-30T10:24:18;94506.06;;;19.35;65.02
38400;BME280;24180;42.676;23.320;2023-04-30T10:26:46;94514.69;;;18.69;74.84
38400;BME280;24180;42.676;23.320;2023-04-30T10:29:15;94511.78;;;16.86;94.60
38400;BME280;24180;42.676;23.320;2023-04-30T10:31:44;94554.25;;;15.87;100.00
38400;BME280;24180;42.676;23.320;2023-04-30T10:36:45;94570.34;;;13.70;100.00
38400;BME280;24180;42.676;23.320;2023-04-30T10:39:18;94564.09;;;13.32;100.00
38400;BME280;24180;42.676;23.320;2023-04-30T10:41:45;94506.25;;;12.73;100.00
38400;BME280;24180;42.676;23.320;2023-04-30T10:44:13;94533.88;;;13.15;100.00
38400;BME280;24180;42.676;23.320;2023-04-30T10:46:39;94554.72;;;13.70;100.00
38400;BME280;24180;42.676;23.320;2023-04-30T10:49:05;94509.72;;;14.84;100.00
38400;BME280;24180;42.676;23.320;2023-04-30T10:51:47;94488.50;;;16.70;100.00
38400;BME280;24180;42.676;23.320;2023-04-30T10:54:23;94532.09;;;19.89;100.00
38400;BME280;24180;42.676;23.320;2023-04-30T10:56:50;94519.00;;;23.04;82.88
38400;BME280;24180;42.676;23.320;2023-04-30T10:59:16;94479.25;;;22.99;80.81
38400;BME280;24180;42.676;23.320;2023-04-30T11:01:54;94492.22;;;24.80;55.69
38400;BME280;24180;42.676;23.320;2023-04-30T11:04:20;94490.03;;;26.05;63.61
38400;BME280;24180;42.676;23.320;2023-04-30T11:09:34;94487.22;;;25.57;47.94
38400;BME280;24180;42.676;23.320;2023-04-30T11:12:03;94509.44;;;24.66;52.98
38400;BME280;24180;42.676;23.320;2023-04-30T11:14:31;94486.47;;;25.11;51.76
38400;BME280;24180;42.676;23.320;2023-04-30T11:16:58;94507.72;;;27.62;42.61
38400;BME280;24180;42.676;23.320;2023-04-30T11:19:26;94504.09;;;25.68;44.60
38400;BME280;24180;42.676;23.320;2023-04-30T11:27:26;94483.66;;;21.23;68.13
38400;BME280;24180;42.676;23.320;2023-04-30T11:29:53;94483.63;;;21.30;73.54
38400;BME280;24180;42.676;23.320;2023-04-30T11:32:20;94503.00;;;21.60;70.93
38400;BME280;24180;42.676;23.320;2023-04-30T11:34:47;94506.47;;;21.79;67.57
38400;BME280;24180;42.676;23.320;2023-04-30T11:37:18;94490.53;;;23.06;62.60
38400;BME280;24180;42.676;23.320;2023-04-30T11:39:45;94494.25;;;25.85;50.16
38400;BME280;24180;42.676;23.320;2023-04-30T11:42:18;94489.81;;;27.89;41.01
38400;BME280;24180;42.676;23.320;2023-04-30T11:44:44;94496.78;;;29.65;38.90
38400;BME280;24180;42.676;23.320;2023-04-30T11:47:11;94490.41;;;30.81;37.25
38400;BME280;24180;42.676;23.320;2023-04-30T11:49:36;94469.53;;;32.66;33.14
38400;BME280;24180;42.676;23.320;2023-04-30T11:52:02;94495.34;;;34.25;31.49
38400;BME280;24180;42.676;23.320;2023-04-30T11:54:34;94492.34;;;35.89;28.21
38400;BME280;24180;42.676;23.320;2023-04-30T11:57:00;94467.19;;;35.13;28.60
38400;BME280;24180;42.676;23.320;2023-04-30T11:59:29;94487.66;;;35.37;29.01
38400;BME280;24180;42.676;23.320;2023-04-30T12:01:54;94487.09;;;36.46;27.97
38400;BME280;24180;42.676;23.320;2023-04-30T12:04:20;94460.44;;;35.60;28.92
38400;BME280;24180;42.676;23.320;2023-04-30T12:06:46;94476.72;;;34.56;29.12
38400;BME280;24180;42.676;23.320;2023-04-30T12:09:12;94494.88;;;32.31;30.34
38400;BME280;24180;42.676;23.320;2023-04-30T12:11:37;94429.03;;;29.56;34.30
38400;BME280;24180;42.676;23.320;2023-04-30T12:14:05;94487.44;;;27.93;38.28
38400;BME280;24180;42.676;23.320;2023-04-30T12:16:48;94466.09;;;26.00;43.88
38400;BME280;24180;42.676;23.320;2023-04-30T12:19:15;94501.19;;;24.62;48.96
38400;BME280;24180;42.676;23.320;2023-04-30T12:21:42;94506.06;;;23.26;54.55
38400;BME280;24180;42.676;23.320;2023-04-30T12:24:12;94525.09;;;21.84;62.22
38400;BME280;24180;42.676;23.320;2023-04-30T12:26:39;94485.38;;;20.48;78.55
38400;BME280;24180;42.676;23.320;2023-04-30T12:29:11;94530.59;;;20.13;87.48
38400;BME280;24180;42.676;23.320;2023-04-30T12:31:37;94525.63;;;19.85;96.09
38400;BME280;24180;42.676;23.320;2023-04-30T12:34:11;94527.25;;;19.20;100.00
38400;BME280;24180;42.676;23.320;2023-04-30T12:36:38;94496.53;;;18.75;100.00
38400;BME280;24180;42.676;23.320;2023-04-30T12:39:13;94537.75;;;19.00;100.00
38400;BME280;24180;42.676;23.320;2023-04-30T12:41:43;94534.50;;;18.92;100.00
38400;BME280;24180;42.676;23.320;2023-04-30T12:44:19;94533.94;;;19.16;100.00
38400;BME280;24180;42.676;23.320;2023-04-30T12:46:49;94503.88;;;19.45;100.00
38400;BME280;24180;42.676;23.320;2023-04-30T12:49:26;94519.16;;;19.94;100.00
38400;BME280;24180;42.676;23.320;2023-04-30T12:51:58;94521.19;;;19.79;99.12
38400;BME280;24180;42.676;23.320;2023-04-30T12:54:31;94497.09;;;19.95;98.44
38400;BME280;24180;42.676;23.320;2023-04-30T12:59:30;94510.81;;;20.61;93.30
38400;BME280;24180;42.676;23.320;2023-04-30T13:02:08;94519.16;;;20.89;91.17
38400;BME280;24180;42.676;23.320;2023-04-30T13:04:34;94511.06;;;19.89;93.50
38400;BME280;24180;42.676;23.320;2023-04-30T13:07:01;94520.38;;;19.72;95.01
38400;BME280;24180;42.676;23.320;2023-04-30T13:09:27;94526.44;;;19.79;98.33
38400;BME280;24180;42.676;23.320;2023-04-30T13:11:52;94488.63;;;19.80;95.45
38400;BME280;24180;42.676;23.320;2023-04-30T13:14:18;94523.19;;;19.90;94.33